Hlavní strana
METAR-TAF:

METAR-TAF

Letiště :

Bujumbura, Burundi

zeměpisná šířka: 03-19S, zeměpisná délka: 029-19E, výška: 782 m

METAR: chybějící

Čas: 06:25 (04:25 UTC)

Předpověď počasí

Zpráva byla vytvořena před 5 hodinami a 25 minutami, v 23:00 UTC
Předpověď platná od 26 v 00 UTC do 27 v 06 UTC
Jižní vítr 5 kt s nárazy do 24 kt
Viditelnost 10 km a více
Žádná oblačnost pod 1500 m, nevyskytují se cumulonimby.

TAF: HBBA 252300Z 2600/2706 04004KT 9999 FEW030 SCT100 BECMG2608/2610 18012G24KT 9999 FEW025 BECMG2616/2618 18005KT CAVOK

Stav a předpovědi počasí z více než 4 000 letišť (zprávy METAR a TAF).

Červené a žluté tečky na mapě představují dostupné meteorologické stanice.

Když kurzor umístíte na tečku, zobrazí se název stanice.

Pak kliknutím zobrazíte stav a předpověď počasí.

Chcete-li změnit mapu, kliknutím na zelené tlačítko se znaménkem +mapu přiblížíte, kliknutím na zelené tlačítko se znaménkem – mapu oddálíte a kliknutím na zelené šipky přejdete na sousední mapy.


METAR-TAF: